Time;durP1;ratioP1;P1;durP2;ratioP2;P2;SDS_P1;SDS_P2;PMS_P1;PMS_P2;Temp;Humidity;BMP_temperature;BMP_pressure;BME280_temperature;BME280_humidity;BME280_pressure;Samples;Min_cycle;Max_cycle;Signal;HPM_P1;HPM_P2
2022/06/10 00:00:42;;;;;;;2.92;2.20;;;11.90;99.90;;;;;;5010967;28;20120;-79
2022/06/10 00:03:12;;;;;;;1.95;1.60;;;11.90;99.90;;;;;;5008985;28;20221;-79
2022/06/10 00:05:39;;;;;;;2.10;1.67;;;11.90;99.90;;;;;;5007559;28;20519;-79
2022/06/10 00:08:11;;;;;;;1.77;1.67;;;11.80;99.90;;;;;;5012892;28;20041;-79
2022/06/10 00:10:37;;;;;;;2.85;1.90;;;11.80;99.90;;;;;;5004452;28;20197;-79
2022/06/10 00:13:04;;;;;;;4.10;2.10;;;11.80;99.90;;;;;;5006569;28;20473;-79
2022/06/10 00:15:30;;;;;;;2.65;1.70;;;11.80;99.90;;;;;;5007178;28;20032;-79
2022/06/10 00:17:56;;;;;;;2.20;2.00;;;11.70;99.90;;;;;;5007789;28;20037;-79
2022/06/10 00:20:27;;;;;;;3.20;2.00;;;11.80;99.90;;;;;;5015329;28;20038;-79
2022/06/10 00:22:53;;;;;;;2.80;2.00;;;11.70;99.90;;;;;;5008877;28;20045;-79
2022/06/10 00:25:20;;;;;;;2.60;1.90;;;11.70;99.90;;;;;;5000024;28;20061;-79
2022/06/10 00:27:47;;;;;;;2.28;1.90;;;11.60;99.90;;;;;;5006781;28;20076;-79
2022/06/10 00:30:15;;;;;;;3.20;2.08;;;11.60;99.90;;;;;;5006369;28;20048;-79
2022/06/10 00:32:41;;;;;;;3.15;2.20;;;11.60;99.90;;;;;;5010850;28;20021;-79
2022/06/10 00:35:07;;;;;;;4.13;2.10;;;11.60;99.90;;;;;;5002878;28;20447;-79
2022/06/10 00:37:33;;;;;;;2.42;2.05;;;11.60;99.90;;;;;;4988525;28;20049;-79
2022/06/10 00:39:59;;;;;;;3.58;2.03;;;11.50;99.90;;;;;;5013113;28;20481;-79
2022/06/10 00:42:25;;;;;;;2.42;2.00;;;11.50;99.90;;;;;;5001515;28;20026;-79
2022/06/10 00:44:53;;;;;;;4.65;2.25;;;11.40;99.90;;;;;;4994506;28;20045;-80
2022/06/10 00:47:37;;;;;;;2.80;2.15;;;11.40;99.90;;;;;;5013314;28;20105;-79
2022/06/10 00:50:28;;;;;;;3.92;2.28;;;11.40;99.90;;;;;;5003383;28;20503;-79
2022/06/10 00:53:00;;;;;;;2.55;2.13;;;11.30;99.90;;;;;;5008797;28;20084;-79
2022/06/10 00:55:30;;;;;;;3.00;2.30;;;11.20;99.90;;;;;;4995626;28;20091;-79
2022/06/10 00:58:31;;;;;;;2.45;2.08;;;11.20;99.90;;;;;;5017182;28;20040;-79
2022/06/10 01:00:56;;;;;;;2.78;2.13;;;11.20;99.90;;;;;;5001416;28;20070;-79
2022/06/10 01:03:22;;;;;;;3.50;2.35;;;11.20;99.90;;;;;;5022828;28;20037;-80
2022/06/10 01:05:48;;;;;;;3.38;2.42;;;11.10;99.90;;;;;;5004450;28;20026;-80
2022/06/10 01:08:16;;;;;;;2.60;2.22;;;11.10;99.90;;;;;;5005394;28;20125;-80
2022/06/10 01:10:45;;;;;;;3.28;2.05;;;11.00;99.90;;;;;;5026810;28;20075;-80
2022/06/10 01:13:32;;;;;;;2.15;1.90;;;11.00;99.90;;;;;;5019554;28;20062;-80
2022/06/10 01:16:20;;;;;;;2.10;1.90;;;11.00;99.90;;;;;;5022381;28;20120;-80
2022/06/10 01:19:00;;;;;;;3.17;2.10;;;10.90;99.90;;;;;;5020027;28;20237;-80
2022/06/10 01:22:08;;;;;;;2.20;2.00;;;10.90;99.90;;;;;;5008085;28;20084;-80
2022/06/10 01:24:56;;;;;;;2.60;2.17;;;10.90;99.90;;;;;;5009775;28;20059;-79
2022/06/10 01:27:49;;;;;;;2.65;2.00;;;10.90;99.90;;;;;;4995815;28;20164;-80
2022/06/10 01:30:34;;;;;;;2.25;1.50;;;10.90;99.90;;;;;;5006121;28;20035;-80
2022/06/10 01:33:08;;;;;;;4.80;2.00;;;10.90;99.90;;;;;;5008489;28;20040;-80
2022/06/10 01:36:00;;;;;;;2.27;1.97;;;10.90;99.90;;;;;;5009403;28;20161;-80
2022/06/10 01:38:37;;;;;;;2.47;1.92;;;10.90;99.90;;;;;;5018980;28;20036;-80
2022/06/10 01:41:38;;;;;;;2.50;2.15;;;10.80;99.90;;;;;;5019916;28;20037;-79
2022/06/10 01:44:17;;;;;;;2.47;1.65;;;10.80;99.90;;;;;;5027524;28;20481;-80
2022/06/10 01:47:00;;;;;;;2.80;1.98;;;10.80;99.90;;;;;;5011432;28;20056;-80
2022/06/10 01:49:40;;;;;;;2.20;1.90;;;10.80;99.90;;;;;;5012130;28;20105;-80
2022/06/10 01:52:19;;;;;;;3.05;2.15;;;10.70;99.90;;;;;;5053372;28;20033;-80
2022/06/10 01:55:19;;;;;;;3.33;2.20;;;10.70;99.90;;;;;;5014752;28;20476;-80
2022/06/10 01:58:00;;;;;;;2.70;2.17;;;10.60;99.90;;;;;;5001517;28;20030;-79
2022/06/10 02:00:30;;;;;;;2.88;2.30;;;10.60;99.90;;;;;;5018681;28;20022;-80
2022/06/10 02:03:13;;;;;;;4.13;2.30;;;10.60;99.90;;;;;;5019223;28;20095;-80
2022/06/10 02:05:49;;;;;;;2.78;2.33;;;10.60;99.90;;;;;;5015806;28;20453;-80
2022/06/10 02:08:41;;;;;;;2.83;2.40;;;10.60;99.90;;;;;;5008693;28;20022;-78
2022/06/10 02:11:13;;;;;;;3.00;2.17;;;10.50;99.90;;;;;;5013744;28;20413;-79
2022/06/10 02:13:50;;;;;;;3.15;2.33;;;10.50;99.90;;;;;;5019791;28;20034;-79
2022/06/10 02:16:22;;;;;;;2.97;2.40;;;10.60;99.90;;;;;;5019209;28;20128;-79
2022/06/10 02:19:05;;;;;;;2.53;2.20;;;10.50;99.90;;;;;;5009462;28;20030;-78
2022/06/10 02:21:35;;;;;;;3.78;2.50;;;10.60;99.90;;;;;;5015372;28;20479;-79
2022/06/10 02:24:09;;;;;;;4.35;2.58;;;10.50;99.90;;;;;;5014320;28;20548;-78
2022/06/10 02:26:36;;;;;;;3.60;2.33;;;10.50;99.90;;;;;;5013536;28;20026;-79
2022/06/10 02:29:07;;;;;;;2.88;2.28;;;10.40;99.90;;;;;;4999621;28;20034;-77
2022/06/10 02:31:39;;;;;;;3.20;2.25;;;10.40;99.90;;;;;;5021360;28;20543;-78
2022/06/10 02:34:07;;;;;;;2.90;2.33;;;10.30;99.90;;;;;;5014492;28;20152;-76
2022/06/10 02:36:45;;;;;;;3.13;2.22;;;10.30;99.90;;;;;;5018485;28;20045;-78
2022/06/10 02:39:30;;;;;;;3.03;2.22;;;10.30;99.90;;;;;;5016272;28;20480;-79
2022/06/10 02:42:03;;;;;;;2.50;2.30;;;10.30;99.90;;;;;;4998391;28;20644;-79
2022/06/10 02:44:58;;;;;;;2.72;2.33;;;10.20;99.90;;;;;;4996109;28;20027;-78
2022/06/10 02:47:49;;;;;;;5.28;2.85;;;10.20;99.90;;;;;;5031426;28;20095;-78
2022/06/10 02:50:16;;;;;;;4.80;2.45;;;10.20;99.90;;;;;;5006137;28;20022;-78
2022/06/10 02:52:43;;;;;;;2.55;2.35;;;10.20;99.90;;;;;;5013534;28;20046;-80
2022/06/10 02:55:16;;;;;;;4.75;2.20;;;10.20;99.90;;;;;;5009118;28;20037;-78
2022/06/10 03:03:33;;;;;;;5.75;2.80;;;10.10;99.90;;;;;;4991980;28;20040;-78
2022/06/10 03:06:20;;;;;;;2.95;2.42;;;10.10;99.90;;;;;;5008811;28;20480;-78
2022/06/10 03:08:58;;;;;;;3.33;2.50;;;10.10;99.90;;;;;;5006984;28;20033;-78
2022/06/10 03:12:02;;;;;;;2.92;2.50;;;10.10;99.90;;;;;;4995713;28;20034;-78
2022/06/10 03:14:43;;;;;;;3.00;2.40;;;10.10;99.90;;;;;;5012113;28;20021;-78
2022/06/10 03:17:29;;;;;;;3.78;2.72;;;10.10;99.90;;;;;;5022558;28;20481;-78
2022/06/10 03:20:32;;;;;;;3.40;2.60;;;10.10;99.90;;;;;;5004820;28;20034;-78
2022/06/10 03:23:22;;;;;;;3.15;2.65;;;10.10;99.90;;;;;;4993370;28;20697;-77
2022/06/10 03:25:56;;;;;;;2.03;1.83;;;10.10;99.90;;;;;;4997625;28;20066;-78
2022/06/10 03:28:35;;;;;;;3.58;2.15;;;10.10;99.90;;;;;;5011144;28;20037;-78
2022/06/10 03:31:08;;;;;;;4.75;2.45;;;10.20;99.90;;;;;;5011623;28;20034;-78
2022/06/10 03:34:18;;;;;;;4.10;2.13;;;10.20;99.90;;;;;;5008630;28;20501;-78
2022/06/10 03:36:46;;;;;;;2.53;2.13;;;10.20;99.90;;;;;;5005130;28;20080;-77
2022/06/10 03:39:13;;;;;;;2.65;2.20;;;10.20;99.90;;;;;;4994329;28;20042;-77
2022/06/10 03:42:11;;;;;;;2.75;2.30;;;10.20;99.90;;;;;;5011554;28;20476;-78
2022/06/10 03:44:37;;;;;;;2.10;1.88;;;10.20;99.90;;;;;;5010982;28;20046;-78
2022/06/10 03:47:05;;;;;;;3.67;2.50;;;10.10;99.90;;;;;;5026254;28;20048;-78
2022/06/10 03:49:45;;;;;;;3.03;2.38;;;10.20;99.90;;;;;;5003216;28;20425;-78
2022/06/10 03:52:19;;;;;;;3.88;2.42;;;10.20;99.90;;;;;;5028692;28;20188;-77
2022/06/10 03:54:45;;;;;;;3.67;2.47;;;10.10;99.90;;;;;;5010985;28;20500;-78
2022/06/10 03:57:11;;;;;;;3.58;2.40;;;10.10;99.90;;;;;;5024351;28;20113;-78
2022/06/10 03:59:37;;;;;;;3.38;3.00;;;10.10;99.90;;;;;;5037741;28;20029;-78
2022/06/10 04:02:03;;;;;;;4.00;2.75;;;10.20;99.90;;;;;;5016289;28;20133;-77
2022/06/10 04:04:29;;;;;;;3.47;2.50;;;10.20;99.90;;;;;;4994303;28;20042;-78
2022/06/10 04:06:54;;;;;;;3.05;2.78;;;10.20;99.90;;;;;;4998596;28;20092;-79
2022/06/10 04:09:20;;;;;;;3.40;2.58;;;10.20;99.90;;;;;;4991168;28;20038;-79
2022/06/10 04:11:46;;;;;;;2.60;2.40;;;10.30;99.90;;;;;;5009011;28;20080;-78
2022/06/10 04:14:11;;;;;;;3.95;2.30;;;10.30;99.90;;;;;;5006879;28;20029;-78
2022/06/10 04:16:37;;;;;;;4.68;2.90;;;10.30;99.90;;;;;;4998696;28;20137;-77
2022/06/10 04:19:03;;;;;;;4.70;2.70;;;10.40;99.90;;;;;;5003515;28;20041;-79
2022/06/10 04:21:29;;;;;;;5.10;3.08;;;10.40;99.90;;;;;;4997523;28;20050;-79
2022/06/10 04:23:54;;;;;;;5.47;3.38;;;10.50;99.90;;;;;;5043547;28;20034;-79
2022/06/10 04:26:20;;;;;;;4.47;2.92;;;10.50;99.90;;;;;;5003946;28;20030;-78
2022/06/10 04:28:47;;;;;;;3.50;2.90;;;10.50;99.90;;;;;;5008405;28;20049;-78
2022/06/10 04:31:13;;;;;;;4.03;3.00;;;10.60;99.90;;;;;;5006145;28;20061;-78
2022/06/10 04:33:39;;;;;;;4.97;3.72;;;10.70;99.90;;;;;;5008453;28;20477;-79
2022/06/10 04:36:05;;;;;;;5.00;3.58;;;10.70;99.90;;;;;;5009781;28;20038;-78
2022/06/10 04:38:32;;;;;;;5.00;3.67;;;10.80;99.90;;;;;;5007825;28;20038;-78
2022/06/10 04:40:58;;;;;;;6.18;3.15;;;10.90;99.90;;;;;;5007622;28;20520;-78
2022/06/10 04:43:24;;;;;;;4.50;3.40;;;11.00;99.90;;;;;;5002726;28;20413;-78
2022/06/10 04:45:53;;;;;;;8.05;5.13;;;11.00;99.90;;;;;;5003897;28;20034;-78
2022/06/10 04:48:19;;;;;;;6.45;5.13;;;11.10;99.90;;;;;;5009511;28;20048;-79
2022/06/10 04:50:47;;;;;;;7.07;4.00;;;11.20;99.90;;;;;;5017092;28;20021;-79
2022/06/10 04:53:13;;;;;;;5.47;4.10;;;11.30;99.90;;;;;;5001866;28;20377;-79
2022/06/10 04:55:39;;;;;;;8.32;3.80;;;11.40;99.90;;;;;;5003825;28;20497;-78
2022/06/10 04:58:06;;;;;;;4.63;3.00;;;11.40;99.90;;;;;;4991009;28;20042;-78
2022/06/10 05:00:39;;;;;;;4.13;2.10;;;11.50;99.90;;;;;;5012492;28;20049;-79
2022/06/10 05:03:06;;;;;;;3.08;2.05;;;11.60;99.90;;;;;;4993674;28;20400;-79
2022/06/10 05:05:33;;;;;;;2.35;1.95;;;11.70;99.90;;;;;;4997792;28;20049;-80
2022/06/10 05:07:59;;;;;;;3.70;2.60;;;11.80;99.90;;;;;;5002948;28;20027;-79
2022/06/10 05:10:26;;;;;;;3.97;2.25;;;11.90;99.90;;;;;;5007611;28;20104;-77
2022/06/10 05:12:51;;;;;;;5.88;3.75;;;12.00;99.90;;;;;;5034544;28;20161;-79
2022/06/10 05:15:22;;;;;;;3.28;2.75;;;12.00;99.90;;;;;;4988291;28;20493;-79
2022/06/10 05:17:51;;;;;;;4.07;2.53;;;12.10;99.90;;;;;;5009736;28;20034;-80
2022/06/10 05:20:25;;;;;;;2.72;2.20;;;12.30;99.90;;;;;;5009738;28;20030;-78
2022/06/10 05:22:51;;;;;;;2.88;2.35;;;12.40;99.90;;;;;;5020020;28;20084;-80
2022/06/10 05:25:17;;;;;;;4.20;2.30;;;12.50;99.90;;;;;;4995600;28;20034;-80
2022/06/10 05:27:42;;;;;;;2.78;2.50;;;12.60;99.90;;;;;;5006266;28;20151;-80
2022/06/10 05:30:12;;;;;;;3.90;2.80;;;12.90;99.90;;;;;;5003399;28;20073;-78
2022/06/10 05:32:38;;;;;;;4.25;3.10;;;13.30;99.90;;;;;;5007466;28;20026;-79
2022/06/10 05:35:04;;;;;;;3.85;2.92;;;13.70;99.90;;;;;;5009824;28;20034;-78
2022/06/10 05:37:30;;;;;;;3.63;2.88;;;14.20;99.90;;;;;;5008064;28;20101;-78
2022/06/10 05:39:56;;;;;;;5.03;3.35;;;14.60;99.90;;;;;;4999477;28;20107;-79
2022/06/10 05:42:22;;;;;;;5.45;3.13;;;15.00;99.90;;;;;;4995604;28;20034;-79
2022/06/10 05:44:51;;;;;;;6.10;3.63;;;15.40;99.90;;;;;;5009414;28;20030;-78
2022/06/10 05:47:21;;;;;;;5.97;3.97;;;15.80;99.90;;;;;;5013197;28;20447;-79
2022/06/10 05:49:50;;;;;;;8.65;4.45;;;16.20;99.90;;;;;;5012638;28;20057;-79
2022/06/10 05:52:18;;;;;;;5.28;4.07;;;16.60;99.90;;;;;;5014520;28;20028;-81
2022/06/10 05:54:46;;;;;;;3.33;2.63;;;17.00;99.90;;;;;;4994807;28;20038;-78
2022/06/10 05:57:12;;;;;;;3.22;2.70;;;17.50;99.90;;;;;;5009180;28;20035;-78
2022/06/10 05:59:38;;;;;;;5.05;3.20;;;17.90;99.90;;;;;;4999564;28;20084;-78
2022/06/10 06:02:08;;;;;;;3.45;2.50;;;18.30;99.90;;;;;;5006619;28;20038;-79
2022/06/10 06:04:34;;;;;;;2.67;2.20;;;18.50;99.90;;;;;;5015834;28;20112;-79
2022/06/10 06:07:00;;;;;;;2.15;1.95;;;18.70;99.90;;;;;;4996710;28;20030;-78
2022/06/10 06:09:26;;;;;;;4.15;2.90;;;19.20;99.90;;;;;;5005145;28;20134;-79
2022/06/10 06:11:57;;;;;;;2.72;2.30;;;19.50;99.90;;;;;;5011890;28;20034;-79
2022/06/10 06:14:27;;;;;;;3.72;1.88;;;19.80;99.90;;;;;;5008145;28;20105;-80
2022/06/10 06:16:55;;;;;;;3.65;2.30;;;20.20;99.90;;;;;;5014846;28;20077;-79
2022/06/10 06:19:23;;;;;;;2.20;1.95;;;20.40;99.90;;;;;;5002395;28;20046;-78
2022/06/10 06:21:49;;;;;;;4.22;2.20;;;20.60;99.90;;;;;;5002918;28;20667;-78
2022/06/10 06:24:15;;;;;;;3.13;2.38;;;21.00;99.90;;;;;;4999837;28;20077;-79
2022/06/10 06:26:41;;;;;;;2.50;2.03;;;21.60;99.90;;;;;;5008232;28;20105;-79
2022/06/10 06:29:10;;;;;;;2.92;1.75;;;21.80;99.90;;;;;;4991033;28;20117;-79
2022/06/10 06:31:37;;;;;;;2.13;1.90;;;22.10;99.90;;;;;;5009603;28;20072;-79
2022/06/10 06:34:03;;;;;;;2.53;2.17;;;22.40;99.90;;;;;;5021420;28;20504;-81
2022/06/10 06:36:32;;;;;;;2.55;1.75;;;22.60;99.40;;;;;;5019358;28;20030;-80
2022/06/10 06:38:58;;;;;;;2.53;1.65;;;22.80;97.70;;;;;;4992229;28;20447;-78
2022/06/10 06:41:24;;;;;;;1.80;1.70;;;23.10;97.20;;;;;;5014537;28;20033;-79
2022/06/10 06:43:50;;;;;;;2.83;1.50;;;23.20;96.30;;;;;;5007255;28;20033;-79
2022/06/10 06:46:18;;;;;;;2.20;1.75;;;23.30;95.20;;;;;;5004524;28;20109;-78
2022/06/10 06:48:44;;;;;;;1.70;1.60;;;23.30;93.40;;;;;;5008271;28;20053;-80
2022/06/10 06:51:10;;;;;;;2.22;1.80;;;23.60;93.20;;;;;;4994529;28;20046;-79
2022/06/10 06:53:36;;;;;;;2.30;1.58;;;23.80;92.40;;;;;;5008386;28;20112;-79
2022/06/10 06:56:04;;;;;;;3.38;2.17;;;24.10;92.00;;;;;;5013243;28;20596;-78
2022/06/10 06:58:30;;;;;;;5.03;1.92;;;24.30;90.10;;;;;;5007466;28;20079;-79
2022/06/10 07:00:56;;;;;;;5.47;1.77;;;24.60;89.90;;;;;;5011420;28;20033;-79
2022/06/10 07:03:22;;;;;;;2.92;1.77;;;24.70;87.70;;;;;;5014343;28;20091;-80
2022/06/10 07:05:49;;;;;;;2.65;1.98;;;25.00;86.40;;;;;;5009644;28;20053;-79
2022/06/10 07:08:17;;;;;;;1.45;1.35;;;25.20;83.50;;;;;;5005932;28;20042;-79
2022/06/10 07:10:43;;;;;;;1.67;1.30;;;25.60;82.20;;;;;;5016409;28;20029;-79
2022/06/10 07:13:09;;;;;;;1.83;1.48;;;25.80;80.10;;;;;;5023414;28;20044;-79
2022/06/10 07:15:37;;;;;;;3.40;1.33;;;26.20;76.90;;;;;;5011971;28;20033;-79
2022/06/10 07:18:03;;;;;;;3.60;1.58;;;26.40;76.10;;;;;;5014763;28;20026;-80
2022/06/10 07:20:36;;;;;;;2.28;1.52;;;26.60;70.90;;;;;;5017561;28;20039;-79
2022/06/10 07:23:02;;;;;;;2.30;1.70;;;26.50;72.90;;;;;;4997451;28;20030;-80
2022/06/10 07:25:30;;;;;;;1.92;1.27;;;26.60;71.80;;;;;;5015880;28;20119;-79
2022/06/10 07:27:56;;;;;;;3.00;1.08;;;26.30;71.30;;;;;;5012398;28;20121;-80
2022/06/10 07:30:25;;;;;;;2.13;1.20;;;26.30;71.10;;;;;;4999788;28;20069;-79
2022/06/10 07:32:51;;;;;;;2.33;1.20;;;26.30;70.40;;;;;;5011288;28;20033;-79
2022/06/10 07:35:18;;;;;;;1.80;1.45;;;26.30;71.10;;;;;;5013982;28;20025;-79
2022/06/10 07:37:45;;;;;;;2.75;1.27;;;26.30;66.90;;;;;;5003902;28;20026;-79
2022/06/10 07:41:56;;;;;;;2.42;1.23;;;26.20;67.80;;;;;;5003955;28;20029;-80
2022/06/10 07:43:03;;;;;;;2.03;1.13;;;26.20;70.20;;;;;;5017817;28;20041;-79
2022/06/10 07:45:29;;;;;;;2.00;1.30;;;26.30;68.80;;;;;;5013919;28;20025;-79
2022/06/10 07:47:55;;;;;;;2.90;0.90;;;26.40;66.50;;;;;;4997025;28;20037;-79
2022/06/10 07:50:23;;;;;;;2.15;1.20;;;26.00;70.70;;;;;;5011244;28;20021;-81
2022/06/10 07:52:52;;;;;;;3.13;1.10;;;26.10;67.20;;;;;;5015470;28;20113;-79
2022/06/10 07:55:19;;;;;;;2.15;1.30;;;26.30;67.90;;;;;;5017416;28;20037;-79
2022/06/10 07:57:45;;;;;;;1.83;0.95;;;26.40;67.70;;;;;;5018493;28;20056;-80
2022/06/10 08:00:13;;;;;;;1.33;1.23;;;26.50;67.50;;;;;;5009900;28;20030;-81
2022/06/10 08:02:40;;;;;;;2.38;1.15;;;26.60;65.40;;;;;;5012055;28;20050;-81
2022/06/10 08:05:08;;;;;;;1.83;1.45;;;26.60;65.10;;;;;;5013985;28;20487;-80
2022/06/10 08:07:35;;;;;;;2.13;1.40;;;26.50;63.90;;;;;;5014931;28;20018;-80
2022/06/10 08:10:00;;;;;;;1.77;1.20;;;26.00;64.90;;;;;;4999627;28;20026;-79
2022/06/10 08:12:26;;;;;;;3.63;1.20;;;25.70;67.40;;;;;;5012210;28;20040;-79
2022/06/10 08:14:52;;;;;;;1.75;1.20;;;25.60;68.30;;;;;;5000866;28;20054;-81
2022/06/10 08:17:18;;;;;;;2.58;1.33;;;25.60;66.00;;;;;;5019573;28;20042;-81
2022/06/10 08:19:44;;;;;;;2.78;1.73;;;25.30;67.80;;;;;;4998032;28;20117;-80
2022/06/10 08:24:54;;;;;;;1.88;0.82;;;24.70;66.40;;;;;;5008487;28;20026;-80
2022/06/10 08:27:20;;;;;;;1.38;1.00;;;24.50;68.50;;;;;;5018537;28;20531;-81
2022/06/10 08:29:46;;;;;;;2.17;0.90;;;24.40;67.20;;;;;;5009533;28;20018;-80
2022/06/10 08:32:12;;;;;;;1.65;0.60;;;24.20;69.50;;;;;;5018036;28;20041;-80
2022/06/10 08:34:41;;;;;;;0.82;0.77;;;23.90;69.70;;;;;;5006544;28;20038;-79
2022/06/10 08:37:11;;;;;;;2.55;0.60;;;23.70;70.40;;;;;;5009247;28;20053;-79
2022/06/10 08:39:37;;;;;;;1.25;0.70;;;23.40;68.30;;;;;;5005072;28;20060;-80
2022/06/10 08:42:13;;;;;;;0.80;0.80;;;23.20;74.60;;;;;;5003600;28;20057;-80
2022/06/10 08:44:52;;;;;;;0.70;0.70;;;23.10;73.70;;;;;;5005943;28;20698;-81
2022/06/10 08:47:31;;;;;;;2.42;0.88;;;23.00;74.70;;;;;;5007573;28;20030;-80
2022/06/10 08:50:06;;;;;;;1.38;0.68;;;23.00;74.40;;;;;;4984725;28;20026;-79
2022/06/10 08:53:01;;;;;;;1.75;0.55;;;23.00;72.30;;;;;;5008034;28;20022;-80
2022/06/10 08:55:33;;;;;;;0.68;0.68;;;23.20;74.50;;;;;;5004475;28;20034;-81
2022/06/10 08:58:03;;;;;;;2.22;0.75;;;23.40;69.40;;;;;;5005257;28;20030;-79
2022/06/10 09:00:40;;;;;;;2.28;0.63;;;23.70;66.40;;;;;;4989164;28;20046;-79
2022/06/10 09:03:21;;;;;;;2.55;0.70;;;24.00;65.30;;;;;;5011384;28;20125;-80
2022/06/10 09:05:51;;;;;;;1.02;0.75;;;24.20;63.50;;;;;;5004939;28;20123;-80
2022/06/10 09:08:23;;;;;;;2.63;0.88;;;24.40;62.90;;;;;;5009177;28;20113;-80
2022/06/10 09:11:01;;;;;;;0.63;0.63;;;24.50;60.90;;;;;;4998767;28;20473;-81
2022/06/10 09:13:45;;;;;;;1.48;0.75;;;24.40;67.20;;;;;;5002422;28;20551;-78
2022/06/10 09:16:38;;;;;;;5.82;1.05;;;24.20;65.90;;;;;;5001280;28;20048;-78
2022/06/10 09:19:13;;;;;;;1.27;0.88;;;24.10;66.80;;;;;;4997298;28;20081;-82
2022/06/10 09:21:47;;;;;;;2.13;0.70;;;23.90;67.30;;;;;;5012800;28;20022;-80
2022/06/10 09:24:26;;;;;;;1.38;0.70;;;23.60;67.00;;;;;;5008881;28;20053;-78
2022/06/10 09:27:02;;;;;;;1.30;0.90;;;23.50;71.50;;;;;;5003424;28;20022;-79
2022/06/10 09:29:28;;;;;;;1.88;0.70;;;23.20;67.80;;;;;;5020633;28;20031;-79
2022/06/10 09:32:06;;;;;;;1.10;0.90;;;23.20;74.00;;;;;;5012890;28;20026;-77
2022/06/10 09:34:50;;;;;;;1.05;0.95;;;23.10;72.10;;;;;;5003922;28;20055;-79
2022/06/10 09:37:16;;;;;;;3.65;0.98;;;23.20;73.20;;;;;;5023337;28;20029;-80
2022/06/10 09:40:37;;;;;;;3.15;0.95;;;23.30;77.80;;;;;;4987611;28;20425;-76
2022/06/10 09:43:21;;;;;;;1.42;0.73;;;23.60;69.80;;;;;;4983793;28;20682;-79
2022/06/10 09:45:54;;;;;;;1.73;1.10;;;23.60;69.60;;;;;;5008928;28;20762;-79
2022/06/10 09:48:43;;;;;;;1.98;0.75;;;23.50;70.30;;;;;;5010676;28;20076;-77
2022/06/10 09:51:08;;;;;;;2.15;0.93;;;23.30;68.20;;;;;;4994459;28;20022;-79
2022/06/10 09:53:49;;;;;;;1.27;0.80;;;23.30;71.60;;;;;;5008739;28;20037;-78
2022/06/10 09:56:44;;;;;;;1.00;0.70;;;23.30;68.50;;;;;;5001908;28;20076;-79
2022/06/10 09:59:16;;;;;;;1.95;0.90;;;23.30;71.30;;;;;;4976486;28;20568;-78
2022/06/10 10:01:56;;;;;;;3.53;0.80;;;23.30;67.20;;;;;;5012964;28;20064;-78
2022/06/10 10:04:52;;;;;;;1.67;0.75;;;23.20;69.50;;;;;;4985870;28;20465;-78
2022/06/10 10:07:42;;;;;;;0.77;0.77;;;23.00;69.90;;;;;;4990153;28;20497;-79
2022/06/10 10:10:20;;;;;;;1.42;0.90;;;22.80;71.80;;;;;;4999899;28;20033;-79
2022/06/10 10:13:04;;;;;;;1.33;0.88;;;22.60;72.50;;;;;;5000462;28;20026;-79
2022/06/10 10:15:50;;;;;;;1.13;1.00;;;22.30;71.70;;;;;;5006079;28;20112;-79
2022/06/10 10:18:35;;;;;;;1.00;0.90;;;22.20;73.90;;;;;;5006006;28;20496;-80
2022/06/10 10:21:02;;;;;;;1.55;0.90;;;21.90;75.30;;;;;;5019565;28;20034;-79
2022/06/10 10:23:34;;;;;;;2.25;0.75;;;21.70;75.70;;;;;;5008294;28;20034;-80
2022/06/10 10:26:05;;;;;;;1.67;1.10;;;21.60;77.20;;;;;;4998941;28;20056;-78
2022/06/10 10:28:38;;;;;;;2.58;1.02;;;21.60;76.40;;;;;;4992738;28;20030;-79
2022/06/10 10:31:17;;;;;;;1.85;1.13;;;21.70;76.20;;;;;;5007598;28;20489;-79
2022/06/10 10:33:44;;;;;;;0.75;0.70;;;21.70;77.40;;;;;;4992411;28;20085;-79
2022/06/10 10:36:47;;;;;;;2.28;0.77;;;21.90;73.50;;;;;;5001464;28;20053;-80
2022/06/10 10:39:29;;;;;;;2.50;1.08;;;22.10;75.40;;;;;;4970018;28;20060;-80
2022/06/10 10:41:58;;;;;;;3.55;1.17;;;22.20;73.70;;;;;;5010780;28;20030;-80
2022/06/10 10:44:41;;;;;;;0.98;0.88;;;22.20;76.20;;;;;;5013095;28;20038;-78
2022/06/10 10:47:10;;;;;;;0.93;0.63;;;22.20;75.20;;;;;;5018911;28;20045;-79
2022/06/10 10:50:03;;;;;;;1.58;0.68;;;22.40;75.50;;;;;;5016088;28;20021;-79
2022/06/10 10:52:36;;;;;;;0.98;0.60;;;22.60;78.70;;;;;;5011726;28;20370;-79
2022/06/10 10:55:11;;;;;;;1.33;0.90;;;22.70;76.50;;;;;;4998877;28;20023;-79
2022/06/10 10:57:39;;;;;;;;;;;22.70;76.70;;;;;;5009708;28;20769;-80
2022/06/10 11:00:14;;;;;;;2.90;0.90;;;22.70;76.40;;;;;;5011701;28;19913;-79
2022/06/10 11:02:39;;;;;;;2.38;0.90;;;22.70;72.80;;;;;;5008847;28;20077;-78
2022/06/10 11:05:21;;;;;;;1.00;0.70;;;22.60;76.00;;;;;;5009573;28;20053;-80
2022/06/10 11:08:33;;;;;;;1.17;0.82;;;22.50;76.90;;;;;;5009004;28;20044;-80
2022/06/10 11:10:59;;;;;;;2.08;0.88;;;22.30;77.10;;;;;;5010537;28;20042;-79
2022/06/10 11:13:36;;;;;;;4.78;0.90;;;22.10;79.20;;;;;;5004714;28;20040;-80
2022/06/10 11:16:26;;;;;;;2.08;0.90;;;22.20;73.90;;;;;;5014265;28;20083;-78
2022/06/10 11:19:02;;;;;;;1.17;0.77;;;22.30;70.60;;;;;;5006037;28;20109;-79
2022/06/10 11:21:29;;;;;;;1.63;1.10;;;22.50;79.00;;;;;;5009206;28;20030;-80
2022/06/10 11:23:58;;;;;;;1.02;0.85;;;22.70;72.00;;;;;;4995020;28;20084;-80
2022/06/10 11:26:26;;;;;;;2.28;1.67;;;23.00;75.10;;;;;;5015824;28;20080;-79
2022/06/10 11:29:01;;;;;;;1.95;0.90;;;23.20;77.70;;;;;;5010385;28;20639;-79
2022/06/10 11:31:55;;;;;;;2.28;1.85;;;23.40;66.50;;;;;;5011539;28;20044;-81
2022/06/10 11:34:36;;;;;;;1.48;1.23;;;23.50;67.60;;;;;;5005061;28;20037;-79
2022/06/10 11:37:31;;;;;;;1.25;0.60;;;23.80;72.50;;;;;;5018588;28;20026;-81
2022/06/10 11:40:28;;;;;;;1.80;0.80;;;24.10;68.30;;;;;;5005468;28;20026;-80
2022/06/10 11:43:03;;;;;;;0.80;0.77;;;24.20;63.50;;;;;;5004005;28;20045;-80
2022/06/10 11:45:39;;;;;;;1.80;0.80;;;24.10;68.30;;;;;;5013973;28;20037;-81
2022/06/10 11:48:18;;;;;;;2.47;0.70;;;23.90;67.60;;;;;;5011295;28;20029;-80
2022/06/10 11:51:01;;;;;;;4.00;1.30;;;23.90;67.60;;;;;;5004540;28;20410;-79
2022/06/10 11:53:47;;;;;;;0.85;0.77;;;24.00;66.20;;;;;;4992996;28;20034;-80
2022/06/10 11:59:57;;;;;;;0.70;0.70;;;23.80;68.60;;;;;;5012933;28;20559;-80
2022/06/10 12:02:46;;;;;;;1.23;0.70;;;23.80;68.70;;;;;;5018761;28;20026;-79
2022/06/10 12:05:30;;;;;;;2.40;0.70;;;24.00;63.50;;;;;;5013233;28;20476;-79
2022/06/10 12:08:11;;;;;;;2.47;0.77;;;24.10;66.40;;;;;;5010947;28;20037;-78
2022/06/10 12:10:49;;;;;;;0.68;0.50;;;24.60;73.80;;;;;;5007620;28;20069;-79
2022/06/10 12:13:15;;;;;;;1.05;0.70;;;25.10;61.60;;;;;;5013366;28;20032;-79
2022/06/10 12:15:58;;;;;;;0.98;0.70;;;25.50;61.80;;;;;;5016135;28;20155;-79
2022/06/10 12:18:29;;;;;;;0.93;0.60;;;25.90;58.40;;;;;;5008750;28;20022;-78
2022/06/10 12:21:03;;;;;;;1.92;0.80;;;26.20;60.60;;;;;;5015253;28;20053;-79
2022/06/10 12:23:35;;;;;;;2.03;0.98;;;26.30;57.80;;;;;;5001370;28;20056;-77
2022/06/10 12:26:15;;;;;;;0.57;0.57;;;26.30;58.00;;;;;;5003746;28;20029;-78
2022/06/10 12:28:53;;;;;;;0.70;0.70;;;26.60;57.50;;;;;;4998522;28;20045;-77
2022/06/10 12:31:28;;;;;;;1.95;0.70;;;26.80;52.50;;;;;;4979777;28;20763;-78
2022/06/10 12:34:02;;;;;;;4.35;0.65;;;27.10;56.70;;;;;;4994725;28;20026;-79
2022/06/10 12:36:39;;;;;;;1.00;0.50;;;27.40;58.80;;;;;;4996156;28;20038;-80
2022/06/10 12:39:14;;;;;;;1.40;0.80;;;27.90;55.50;;;;;;4998534;28;20033;-78
2022/06/10 12:41:46;;;;;;;1.25;0.90;;;28.10;48.30;;;;;;5000007;28;20145;-79
2022/06/10 12:44:19;;;;;;;2.00;1.08;;;27.90;48.30;;;;;;5004369;28;20109;-78
2022/06/10 12:46:51;;;;;;;0.55;0.47;;;27.30;53.00;;;;;;5001728;28;20416;-79
2022/06/10 12:49:35;;;;;;;1.20;0.70;;;27.00;53.90;;;;;;5004526;28;20050;-80
2022/06/10 12:52:32;;;;;;;1.00;0.60;;;26.60;54.40;;;;;;5015923;28;20084;-79
2022/06/10 12:55:15;;;;;;;1.98;0.85;;;26.30;55.70;;;;;;5005087;28;20038;-78
2022/06/10 12:57:46;;;;;;;1.25;0.80;;;26.00;54.10;;;;;;5003652;28;20044;-80
2022/06/10 13:00:18;;;;;;;1.85;0.70;;;25.70;55.30;;;;;;4999537;28;20034;-78
2022/06/10 13:03:15;;;;;;;2.22;0.70;;;25.40;56.50;;;;;;5004394;28;20069;-79
2022/06/10 13:05:43;;;;;;;1.42;0.70;;;25.30;55.20;;;;;;4989536;28;20044;-78
2022/06/10 13:08:47;;;;;;;1.75;0.57;;;25.40;53.30;;;;;;5003919;28;20041;-79
2022/06/10 13:11:30;;;;;;;0.52;0.52;;;25.40;54.30;;;;;;5013889;28;20099;-78
2022/06/10 13:14:13;;;;;;;0.95;0.68;;;25.30;54.70;;;;;;4997949;28;20801;-78
2022/06/10 13:16:47;;;;;;;0.93;0.77;;;25.50;55.60;;;;;;4998427;28;20042;-78
2022/06/10 13:19:33;;;;;;;0.77;0.43;;;25.70;55.10;;;;;;5004031;28;20029;-79
2022/06/10 13:22:19;;;;;;;;;;;26.20;56.00;;;;;;4988525;28;20443;-79
2022/06/10 13:25:05;;;;;;;0.73;0.50;;;26.70;52.40;;;;;;5006261;28;19947;-80
2022/06/10 13:27:33;;;;;;;0.60;0.60;;;27.10;53.70;;;;;;5012804;28;20415;-80
2022/06/10 13:30:13;;;;;;;1.25;0.77;;;27.30;55.50;;;;;;5010905;28;20481;-79
2022/06/10 13:32:49;;;;;;;0.90;0.70;;;27.40;54.10;;;;;;5007155;28;20026;-79
2022/06/10 13:35:43;;;;;;;0.73;0.60;;;27.70;54.40;;;;;;5007345;28;20101;-79